sensor_id;sensor_type;location;lat;lon;timestamp;P1;durP1;ratioP1;P2;durP2;ratioP2
69931;SDS011;57243;52.064;5.116;2022-10-16T00:02:00;2.27;;;1.17;;
69931;SDS011;57243;52.064;5.116;2022-10-16T00:04:25;3.08;;;1.30;;
69931;SDS011;57243;52.064;5.116;2022-10-16T00:06:51;2.60;;;1.13;;
69931;SDS011;57243;52.064;5.116;2022-10-16T00:09:16;3.53;;;1.10;;
69931;SDS011;57243;52.064;5.116;2022-10-16T00:11:42;4.25;;;1.13;;
69931;SDS011;57243;52.064;5.116;2022-10-16T00:14:09;4.67;;;1.53;;
69931;SDS011;57243;52.064;5.116;2022-10-16T00:16:37;4.35;;;1.40;;
69931;SDS011;57243;52.064;5.116;2022-10-16T00:19:03;4.07;;;1.25;;
69931;SDS011;57243;52.064;5.116;2022-10-16T00:21:29;3.20;;;1.17;;
69931;SDS011;57243;52.064;5.116;2022-10-16T00:24:00;2.73;;;1.17;;
69931;SDS011;57243;52.064;5.116;2022-10-16T00:26:29;1.48;;;1.00;;
69931;SDS011;57243;52.064;5.116;2022-10-16T00:28:57;2.97;;;1.35;;
69931;SDS011;57243;52.064;5.116;2022-10-16T00:31:23;2.42;;;1.17;;
69931;SDS011;57243;52.064;5.116;2022-10-16T00:33:50;3.10;;;1.35;;
69931;SDS011;57243;52.064;5.116;2022-10-16T00:36:17;2.43;;;1.10;;
69931;SDS011;57243;52.064;5.116;2022-10-16T00:38:44;4.45;;;1.50;;
69931;SDS011;57243;52.064;5.116;2022-10-16T00:41:11;3.20;;;1.20;;
69931;SDS011;57243;52.064;5.116;2022-10-16T00:48:51;3.73;;;1.30;;
69931;SDS011;57243;52.064;5.116;2022-10-16T00:51:18;2.80;;;1.20;;
69931;SDS011;57243;52.064;5.116;2022-10-16T00:53:48;2.97;;;1.40;;
69931;SDS011;57243;52.064;5.116;2022-10-16T00:56:14;2.47;;;1.20;;
69931;SDS011;57243;52.064;5.116;2022-10-16T00:58:40;2.28;;;1.10;;
69931;SDS011;57243;52.064;5.116;2022-10-16T01:01:06;2.70;;;1.10;;
69931;SDS011;57243;52.064;5.116;2022-10-16T01:03:33;2.20;;;1.15;;
69931;SDS011;57243;52.064;5.116;2022-10-16T01:06:12;4.10;;;1.30;;
69931;SDS011;57243;52.064;5.116;2022-10-16T01:09:14;4.25;;;1.40;;
69931;SDS011;57243;52.064;5.116;2022-10-16T01:17:23;4.72;;;1.45;;
69931;SDS011;57243;52.064;5.116;2022-10-16T01:25:52;3.13;;;1.33;;
69931;SDS011;57243;52.064;5.116;2022-10-16T01:28:27;3.65;;;1.40;;
69931;SDS011;57243;52.064;5.116;2022-10-16T01:30:58;4.07;;;1.25;;
69931;SDS011;57243;52.064;5.116;2022-10-16T01:33:30;3.88;;;1.27;;
69931;SDS011;57243;52.064;5.116;2022-10-16T01:36:03;4.18;;;1.38;;
69931;SDS011;57243;52.064;5.116;2022-10-16T01:38:37;2.13;;;1.13;;
69931;SDS011;57243;52.064;5.116;2022-10-16T01:41:07;2.25;;;1.00;;
69931;SDS011;57243;52.064;5.116;2022-10-16T01:43:40;1.83;;;1.10;;
69931;SDS011;57243;52.064;5.116;2022-10-16T01:46:15;4.55;;;1.13;;
69931;SDS011;57243;52.064;5.116;2022-10-16T01:48:43;2.58;;;1.25;;
69931;SDS011;57243;52.064;5.116;2022-10-16T01:51:10;1.85;;;1.30;;
69931;SDS011;57243;52.064;5.116;2022-10-16T01:53:38;3.13;;;1.30;;
69931;SDS011;57243;52.064;5.116;2022-10-16T01:56:06;2.20;;;1.15;;
69931;SDS011;57243;52.064;5.116;2022-10-16T01:58:37;2.53;;;1.30;;
69931;SDS011;57243;52.064;5.116;2022-10-16T02:01:09;3.03;;;1.30;;
69931;SDS011;57243;52.064;5.116;2022-10-16T02:03:39;4.95;;;1.40;;
69931;SDS011;57243;52.064;5.116;2022-10-16T02:06:07;2.60;;;1.05;;
69931;SDS011;57243;52.064;5.116;2022-10-16T02:08:33;2.07;;;1.13;;
69931;SDS011;57243;52.064;5.116;2022-10-16T02:11:00;4.20;;;1.27;;
69931;SDS011;57243;52.064;5.116;2022-10-16T02:13:37;3.35;;;1.20;;
69931;SDS011;57243;52.064;5.116;2022-10-16T02:16:07;2.50;;;1.00;;
69931;SDS011;57243;52.064;5.116;2022-10-16T02:18:35;3.97;;;1.42;;
69931;SDS011;57243;52.064;5.116;2022-10-16T02:21:02;1.90;;;1.10;;
69931;SDS011;57243;52.064;5.116;2022-10-16T02:23:31;2.35;;;1.25;;
69931;SDS011;57243;52.064;5.116;2022-10-16T02:26:07;3.03;;;1.45;;
69931;SDS011;57243;52.064;5.116;2022-10-16T02:28:41;2.75;;;1.30;;
69931;SDS011;57243;52.064;5.116;2022-10-16T02:31:14;2.20;;;0.95;;
69931;SDS011;57243;52.064;5.116;2022-10-16T02:33:46;2.88;;;1.20;;
69931;SDS011;57243;52.064;5.116;2022-10-16T02:36:12;3.35;;;1.10;;
69931;SDS011;57243;52.064;5.116;2022-10-16T02:38:38;3.47;;;1.45;;
69931;SDS011;57243;52.064;5.116;2022-10-16T02:41:05;2.63;;;1.15;;
69931;SDS011;57243;52.064;5.116;2022-10-16T02:43:31;3.17;;;1.10;;
69931;SDS011;57243;52.064;5.116;2022-10-16T02:45:58;3.08;;;1.40;;
69931;SDS011;57243;52.064;5.116;2022-10-16T02:48:24;2.63;;;1.30;;
69931;SDS011;57243;52.064;5.116;2022-10-16T02:50:50;2.03;;;1.20;;
69931;SDS011;57243;52.064;5.116;2022-10-16T02:53:16;2.27;;;1.07;;
69931;SDS011;57243;52.064;5.116;2022-10-16T02:55:41;3.13;;;0.93;;
69931;SDS011;57243;52.064;5.116;2022-10-16T02:58:07;2.07;;;1.17;;
69931;SDS011;57243;52.064;5.116;2022-10-16T03:00:33;1.77;;;1.27;;
69931;SDS011;57243;52.064;5.116;2022-10-16T03:02:58;2.10;;;1.20;;
69931;SDS011;57243;52.064;5.116;2022-10-16T03:05:24;2.30;;;1.30;;
69931;SDS011;57243;52.064;5.116;2022-10-16T03:07:49;2.97;;;1.33;;
69931;SDS011;57243;52.064;5.116;2022-10-16T03:10:15;2.80;;;1.20;;
69931;SDS011;57243;52.064;5.116;2022-10-16T03:12:41;1.85;;;1.13;;
69931;SDS011;57243;52.064;5.116;2022-10-16T03:15:06;2.90;;;1.23;;
69931;SDS011;57243;52.064;5.116;2022-10-16T03:17:33;2.88;;;1.20;;
69931;SDS011;57243;52.064;5.116;2022-10-16T03:19:58;3.17;;;1.00;;
69931;SDS011;57243;52.064;5.116;2022-10-16T03:22:24;2.50;;;1.30;;
69931;SDS011;57243;52.064;5.116;2022-10-16T03:24:50;2.50;;;1.00;;
69931;SDS011;57243;52.064;5.116;2022-10-16T03:27:15;2.20;;;1.10;;
69931;SDS011;57243;52.064;5.116;2022-10-16T03:29:41;2.43;;;1.00;;
69931;SDS011;57243;52.064;5.116;2022-10-16T03:32:06;2.47;;;0.90;;
69931;SDS011;57243;52.064;5.116;2022-10-16T03:34:32;2.28;;;1.00;;
69931;SDS011;57243;52.064;5.116;2022-10-16T03:36:58;1.50;;;1.30;;
69931;SDS011;57243;52.064;5.116;2022-10-16T03:39:23;1.73;;;0.97;;
69931;SDS011;57243;52.064;5.116;2022-10-16T03:41:49;2.10;;;1.00;;
69931;SDS011;57243;52.064;5.116;2022-10-16T03:44:14;2.50;;;1.30;;
69931;SDS011;57243;52.064;5.116;2022-10-16T03:46:40;2.55;;;1.25;;
69931;SDS011;57243;52.064;5.116;2022-10-16T03:49:06;2.00;;;1.20;;
69931;SDS011;57243;52.064;5.116;2022-10-16T03:51:31;2.03;;;1.10;;
69931;SDS011;57243;52.064;5.116;2022-10-16T03:53:57;2.85;;;1.10;;
69931;SDS011;57243;52.064;5.116;2022-10-16T03:56:22;1.80;;;1.00;;
69931;SDS011;57243;52.064;5.116;2022-10-16T03:58:48;2.03;;;1.17;;
69931;SDS011;57243;52.064;5.116;2022-10-16T04:01:13;1.80;;;1.00;;
69931;SDS011;57243;52.064;5.116;2022-10-16T04:03:39;2.13;;;1.20;;
69931;SDS011;57243;52.064;5.116;2022-10-16T04:06:05;2.67;;;1.20;;
69931;SDS011;57243;52.064;5.116;2022-10-16T04:08:30;2.03;;;1.20;;
69931;SDS011;57243;52.064;5.116;2022-10-16T04:10:59;4.50;;;1.20;;
69931;SDS011;57243;52.064;5.116;2022-10-16T04:13:24;2.30;;;1.20;;
69931;SDS011;57243;52.064;5.116;2022-10-16T04:15:50;1.50;;;1.00;;
69931;SDS011;57243;52.064;5.116;2022-10-16T04:18:15;2.17;;;1.40;;
69931;SDS011;57243;52.064;5.116;2022-10-16T04:20:41;2.40;;;1.20;;
69931;SDS011;57243;52.064;5.116;2022-10-16T04:23:07;2.60;;;1.20;;
69931;SDS011;57243;52.064;5.116;2022-10-16T04:25:32;1.48;;;1.00;;
69931;SDS011;57243;52.064;5.116;2022-10-16T04:27:58;1.40;;;1.17;;
69931;SDS011;57243;52.064;5.116;2022-10-16T04:30:23;2.57;;;1.23;;
69931;SDS011;57243;52.064;5.116;2022-10-16T04:32:50;1.10;;;0.93;;
69931;SDS011;57243;52.064;5.116;2022-10-16T04:35:17;2.22;;;0.95;;
69931;SDS011;57243;52.064;5.116;2022-10-16T04:37:43;2.30;;;1.40;;
69931;SDS011;57243;52.064;5.116;2022-10-16T04:40:09;3.75;;;1.25;;
69931;SDS011;57243;52.064;5.116;2022-10-16T04:42:35;1.63;;;1.00;;
69931;SDS011;57243;52.064;5.116;2022-10-16T04:45:00;1.17;;;1.02;;
69931;SDS011;57243;52.064;5.116;2022-10-16T04:47:26;1.70;;;1.20;;
69931;SDS011;57243;52.064;5.116;2022-10-16T04:49:51;1.37;;;1.00;;
69931;SDS011;57243;52.064;5.116;2022-10-16T04:52:17;2.60;;;0.93;;
69931;SDS011;57243;52.064;5.116;2022-10-16T04:54:43;2.13;;;1.10;;
69931;SDS011;57243;52.064;5.116;2022-10-16T04:57:10;2.92;;;0.98;;
69931;SDS011;57243;52.064;5.116;2022-10-16T04:59:36;1.70;;;1.10;;
69931;SDS011;57243;52.064;5.116;2022-10-16T05:02:02;1.60;;;1.08;;
69931;SDS011;57243;52.064;5.116;2022-10-16T05:04:28;3.60;;;1.13;;
69931;SDS011;57243;52.064;5.116;2022-10-16T05:06:53;2.75;;;1.08;;
69931;SDS011;57243;52.064;5.116;2022-10-16T05:09:19;2.13;;;1.20;;
69931;SDS011;57243;52.064;5.116;2022-10-16T05:11:45;1.73;;;1.10;;
69931;SDS011;57243;52.064;5.116;2022-10-16T05:14:10;2.23;;;0.97;;
69931;SDS011;57243;52.064;5.116;2022-10-16T05:16:36;2.08;;;1.00;;
69931;SDS011;57243;52.064;5.116;2022-10-16T05:19:02;4.57;;;1.00;;
69931;SDS011;57243;52.064;5.116;2022-10-16T05:21:27;1.70;;;0.90;;
69931;SDS011;57243;52.064;5.116;2022-10-16T05:23:53;2.50;;;1.08;;
69931;SDS011;57243;52.064;5.116;2022-10-16T05:26:20;2.33;;;1.10;;
69931;SDS011;57243;52.064;5.116;2022-10-16T05:28:46;3.43;;;0.90;;
69931;SDS011;57243;52.064;5.116;2022-10-16T05:31:11;1.83;;;0.98;;
69931;SDS011;57243;52.064;5.116;2022-10-16T05:33:37;1.97;;;1.10;;
69931;SDS011;57243;52.064;5.116;2022-10-16T05:36:04;1.15;;;0.80;;
69931;SDS011;57243;52.064;5.116;2022-10-16T05:38:32;2.83;;;1.00;;
69931;SDS011;57243;52.064;5.116;2022-10-16T05:40:58;1.63;;;1.10;;
69931;SDS011;57243;52.064;5.116;2022-10-16T05:43:24;1.88;;;1.10;;
69931;SDS011;57243;52.064;5.116;2022-10-16T05:45:55;2.15;;;0.90;;
69931;SDS011;57243;52.064;5.116;2022-10-16T05:48:23;1.10;;;0.60;;
69931;SDS011;57243;52.064;5.116;2022-10-16T05:50:55;3.63;;;0.90;;
69931;SDS011;57243;52.064;5.116;2022-10-16T05:53:29;3.42;;;1.10;;
69931;SDS011;57243;52.064;5.116;2022-10-16T05:55:56;7.50;;;1.30;;
69931;SDS011;57243;52.064;5.116;2022-10-16T05:58:22;3.03;;;1.25;;
69931;SDS011;57243;52.064;5.116;2022-10-16T06:00:59;3.72;;;1.27;;
69931;SDS011;57243;52.064;5.116;2022-10-16T06:03:26;8.27;;;1.13;;
69931;SDS011;57243;52.064;5.116;2022-10-16T06:05:52;2.25;;;0.95;;
69931;SDS011;57243;52.064;5.116;2022-10-16T06:08:18;3.55;;;1.02;;
69931;SDS011;57243;52.064;5.116;2022-10-16T06:10:45;4.70;;;1.00;;
69931;SDS011;57243;52.064;5.116;2022-10-16T06:13:11;5.65;;;1.13;;
69931;SDS011;57243;52.064;5.116;2022-10-16T06:15:38;3.83;;;1.33;;
69931;SDS011;57243;52.064;5.116;2022-10-16T06:18:06;10.13;;;1.20;;
69931;SDS011;57243;52.064;5.116;2022-10-16T06:20:32;5.45;;;1.80;;
69931;SDS011;57243;52.064;5.116;2022-10-16T06:22:58;3.42;;;1.30;;
69931;SDS011;57243;52.064;5.116;2022-10-16T06:25:23;5.50;;;1.13;;
69931;SDS011;57243;52.064;5.116;2022-10-16T06:27:49;5.67;;;1.30;;
69931;SDS011;57243;52.064;5.116;2022-10-16T06:30:14;2.90;;;1.08;;
69931;SDS011;57243;52.064;5.116;2022-10-16T06:32:40;5.53;;;1.40;;
69931;SDS011;57243;52.064;5.116;2022-10-16T06:35:06;4.67;;;1.37;;
69931;SDS011;57243;52.064;5.116;2022-10-16T06:37:32;6.35;;;1.20;;
69931;SDS011;57243;52.064;5.116;2022-10-16T06:39:57;7.20;;;1.37;;
69931;SDS011;57243;52.064;5.116;2022-10-16T06:42:23;5.65;;;1.27;;
69931;SDS011;57243;52.064;5.116;2022-10-16T06:44:48;11.37;;;2.10;;
69931;SDS011;57243;52.064;5.116;2022-10-16T06:47:14;4.73;;;0.90;;
69931;SDS011;57243;52.064;5.116;2022-10-16T06:49:39;6.40;;;1.50;;
69931;SDS011;57243;52.064;5.116;2022-10-16T06:52:05;8.27;;;1.27;;
69931;SDS011;57243;52.064;5.116;2022-10-16T06:54:30;11.60;;;1.40;;
69931;SDS011;57243;52.064;5.116;2022-10-16T06:56:56;8.73;;;2.00;;
69931;SDS011;57243;52.064;5.116;2022-10-16T06:59:22;7.97;;;1.63;;
69931;SDS011;57243;52.064;5.116;2022-10-16T07:01:48;7.47;;;1.70;;
69931;SDS011;57243;52.064;5.116;2022-10-16T07:04:13;14.68;;;3.33;;
69931;SDS011;57243;52.064;5.116;2022-10-16T07:06:39;7.53;;;1.70;;
69931;SDS011;57243;52.064;5.116;2022-10-16T07:09:06;7.83;;;1.37;;
69931;SDS011;57243;52.064;5.116;2022-10-16T07:11:33;6.35;;;1.80;;
69931;SDS011;57243;52.064;5.116;2022-10-16T07:13:59;11.35;;;3.58;;
69931;SDS011;57243;52.064;5.116;2022-10-16T07:16:26;11.20;;;2.97;;
69931;SDS011;57243;52.064;5.116;2022-10-16T07:18:53;11.48;;;2.80;;
69931;SDS011;57243;52.064;5.116;2022-10-16T07:21:23;11.48;;;2.58;;
69931;SDS011;57243;52.064;5.116;2022-10-16T07:23:53;13.02;;;2.90;;
69931;SDS011;57243;52.064;5.116;2022-10-16T07:26:21;4.53;;;2.33;;
69931;SDS011;57243;52.064;5.116;2022-10-16T07:28:48;7.95;;;3.15;;
69931;SDS011;57243;52.064;5.116;2022-10-16T07:31:14;10.00;;;2.50;;
69931;SDS011;57243;52.064;5.116;2022-10-16T07:33:42;9.43;;;2.10;;
69931;SDS011;57243;52.064;5.116;2022-10-16T07:36:09;5.57;;;2.20;;
69931;SDS011;57243;52.064;5.116;2022-10-16T07:38:36;17.17;;;4.60;;
69931;SDS011;57243;52.064;5.116;2022-10-16T07:41:03;5.15;;;1.83;;
69931;SDS011;57243;52.064;5.116;2022-10-16T07:43:31;5.50;;;1.90;;
69931;SDS011;57243;52.064;5.116;2022-10-16T07:45:57;6.25;;;2.03;;
69931;SDS011;57243;52.064;5.116;2022-10-16T07:48:23;4.97;;;1.77;;
69931;SDS011;57243;52.064;5.116;2022-10-16T07:50:51;5.38;;;1.70;;
69931;SDS011;57243;52.064;5.116;2022-10-16T07:53:17;3.70;;;1.60;;
69931;SDS011;57243;52.064;5.116;2022-10-16T07:55:43;5.07;;;1.55;;
69931;SDS011;57243;52.064;5.116;2022-10-16T07:58:08;9.53;;;2.70;;
69931;SDS011;57243;52.064;5.116;2022-10-16T08:00:35;8.15;;;1.83;;
69931;SDS011;57243;52.064;5.116;2022-10-16T08:03:02;4.07;;;1.40;;
69931;SDS011;57243;52.064;5.116;2022-10-16T08:05:28;7.20;;;1.70;;
69931;SDS011;57243;52.064;5.116;2022-10-16T08:07:55;5.65;;;1.70;;
69931;SDS011;57243;52.064;5.116;2022-10-16T08:10:22;5.93;;;1.70;;
69931;SDS011;57243;52.064;5.116;2022-10-16T08:12:49;6.93;;;1.45;;
69931;SDS011;57243;52.064;5.116;2022-10-16T08:15:15;4.70;;;1.30;;
69931;SDS011;57243;52.064;5.116;2022-10-16T08:17:41;6.10;;;1.60;;
69931;SDS011;57243;52.064;5.116;2022-10-16T08:20:07;5.93;;;1.70;;
69931;SDS011;57243;52.064;5.116;2022-10-16T08:22:33;8.93;;;1.90;;
69931;SDS011;57243;52.064;5.116;2022-10-16T08:24:59;7.82;;;1.77;;
69931;SDS011;57243;52.064;5.116;2022-10-16T08:27:24;8.63;;;1.70;;
69931;SDS011;57243;52.064;5.116;2022-10-16T08:29:50;10.25;;;1.80;;
69931;SDS011;57243;52.064;5.116;2022-10-16T08:32:16;6.93;;;1.53;;
69931;SDS011;57243;52.064;5.116;2022-10-16T08:34:42;6.07;;;1.50;;
69931;SDS011;57243;52.064;5.116;2022-10-16T08:37:07;3.67;;;1.47;;
69931;SDS011;57243;52.064;5.116;2022-10-16T08:39:36;6.28;;;1.30;;
69931;SDS011;57243;52.064;5.116;2022-10-16T08:44:58;3.75;;;1.40;;
69931;SDS011;57243;52.064;5.116;2022-10-16T08:50:11;4.63;;;1.35;;
69931;SDS011;57243;52.064;5.116;2022-10-16T08:52:40;7.00;;;1.30;;
69931;SDS011;57243;52.064;5.116;2022-10-16T08:55:16;13.07;;;1.50;;
69931;SDS011;57243;52.064;5.116;2022-10-16T08:57:48;5.20;;;1.33;;
69931;SDS011;57243;52.064;5.116;2022-10-16T09:00:14;5.90;;;1.40;;
69931;SDS011;57243;52.064;5.116;2022-10-16T09:02:45;6.45;;;1.80;;
69931;SDS011;57243;52.064;5.116;2022-10-16T09:05:44;7.32;;;1.40;;
69931;SDS011;57243;52.064;5.116;2022-10-16T09:08:28;3.92;;;1.35;;
69931;SDS011;57243;52.064;5.116;2022-10-16T09:14:06;4.78;;;1.13;;
69931;SDS011;57243;52.064;5.116;2022-10-16T09:16:44;4.43;;;1.30;;
69931;SDS011;57243;52.064;5.116;2022-10-16T09:19:17;6.97;;;1.60;;
69931;SDS011;57243;52.064;5.116;2022-10-16T09:21:55;3.95;;;1.17;;
69931;SDS011;57243;52.064;5.116;2022-10-16T09:24:22;10.82;;;1.70;;
69931;SDS011;57243;52.064;5.116;2022-10-16T09:26:50;4.03;;;1.30;;
69931;SDS011;57243;52.064;5.116;2022-10-16T09:29:16;5.43;;;1.40;;
69931;SDS011;57243;52.064;5.116;2022-10-16T09:31:46;3.92;;;1.45;;
69931;SDS011;57243;52.064;5.116;2022-10-16T09:34:27;7.00;;;1.42;;
69931;SDS011;57243;52.064;5.116;2022-10-16T09:36:57;5.55;;;1.20;;
69931;SDS011;57243;52.064;5.116;2022-10-16T09:39:25;5.53;;;1.33;;
69931;SDS011;57243;52.064;5.116;2022-10-16T09:41:51;6.97;;;1.30;;
69931;SDS011;57243;52.064;5.116;2022-10-16T09:44:24;6.22;;;1.60;;
69931;SDS011;57243;52.064;5.116;2022-10-16T09:49:39;8.95;;;1.60;;
69931;SDS011;57243;52.064;5.116;2022-10-16T09:52:15;5.67;;;1.20;;
69931;SDS011;57243;52.064;5.116;2022-10-16T09:57:20;5.95;;;1.60;;
69931;SDS011;57243;52.064;5.116;2022-10-16T09:59:50;7.63;;;1.50;;
69931;SDS011;57243;52.064;5.116;2022-10-16T10:02:18;9.18;;;1.83;;
69931;SDS011;57243;52.064;5.116;2022-10-16T10:04:55;8.10;;;1.50;;
69931;SDS011;57243;52.064;5.116;2022-10-16T10:07:28;9.00;;;1.80;;
69931;SDS011;57243;52.064;5.116;2022-10-16T10:10:04;9.07;;;1.60;;
69931;SDS011;57243;52.064;5.116;2022-10-16T10:12:31;11.30;;;2.10;;
69931;SDS011;57243;52.064;5.116;2022-10-16T10:15:04;8.02;;;1.80;;
69931;SDS011;57243;52.064;5.116;2022-10-16T10:17:32;8.80;;;1.63;;
69931;SDS011;57243;52.064;5.116;2022-10-16T10:19:59;7.03;;;1.80;;
69931;SDS011;57243;52.064;5.116;2022-10-16T10:30:37;12.80;;;2.53;;
69931;SDS011;57243;52.064;5.116;2022-10-16T10:33:14;12.57;;;1.77;;
69931;SDS011;57243;52.064;5.116;2022-10-16T10:38:51;13.82;;;2.00;;
69931;SDS011;57243;52.064;5.116;2022-10-16T10:47:07;14.05;;;2.17;;
69931;SDS011;57243;52.064;5.116;2022-10-16T10:49:55;11.93;;;1.70;;
69931;SDS011;57243;52.064;5.116;2022-10-16T10:53:03;16.95;;;2.10;;
69931;SDS011;57243;52.064;5.116;2022-10-16T10:56:03;9.68;;;1.70;;
69931;SDS011;57243;52.064;5.116;2022-10-16T11:06:43;8.75;;;1.75;;
69931;SDS011;57243;52.064;5.116;2022-10-16T11:09:17;11.90;;;1.98;;
69931;SDS011;57243;52.064;5.116;2022-10-16T11:11:53;11.38;;;1.98;;
69931;SDS011;57243;52.064;5.116;2022-10-16T11:14:29;10.40;;;1.48;;
69931;SDS011;57243;52.064;5.116;2022-10-16T11:17:05;8.52;;;1.58;;
69931;SDS011;57243;52.064;5.116;2022-10-16T11:27:45;4.78;;;1.65;;
69931;SDS011;57243;52.064;5.116;2022-10-16T11:30:20;6.97;;;1.42;;
69931;SDS011;57243;52.064;5.116;2022-10-16T11:33:00;7.50;;;2.03;;
69931;SDS011;57243;52.064;5.116;2022-10-16T11:35:32;5.38;;;1.58;;
69931;SDS011;57243;52.064;5.116;2022-10-16T11:38:03;3.97;;;1.60;;
69931;SDS011;57243;52.064;5.116;2022-10-16T11:40:37;5.63;;;1.40;;
69931;SDS011;57243;52.064;5.116;2022-10-16T11:43:10;8.23;;;1.52;;
69931;SDS011;57243;52.064;5.116;2022-10-16T11:45:41;10.07;;;1.70;;
69931;SDS011;57243;52.064;5.116;2022-10-16T11:48:18;5.90;;;1.15;;
69931;SDS011;57243;52.064;5.116;2022-10-16T11:51:04;6.07;;;1.63;;
69931;SDS011;57243;52.064;5.116;2022-10-16T11:53:42;6.57;;;1.42;;
69931;SDS011;57243;52.064;5.116;2022-10-16T11:56:19;6.20;;;1.20;;
69931;SDS011;57243;52.064;5.116;2022-10-16T11:58:54;6.78;;;1.80;;
69931;SDS011;57243;52.064;5.116;2022-10-16T12:01:33;5.32;;;1.48;;
69931;SDS011;57243;52.064;5.116;2022-10-16T12:07:06;4.95;;;1.38;;
69931;SDS011;57243;52.064;5.116;2022-10-16T12:09:36;4.68;;;1.40;;
69931;SDS011;57243;52.064;5.116;2022-10-16T12:12:03;5.60;;;1.50;;
69931;SDS011;57243;52.064;5.116;2022-10-16T12:14:34;5.18;;;1.42;;
69931;SDS011;57243;52.064;5.116;2022-10-16T12:17:22;5.72;;;1.63;;
69931;SDS011;57243;52.064;5.116;2022-10-16T12:22:36;5.88;;;1.60;;
69931;SDS011;57243;52.064;5.116;2022-10-16T12:25:17;4.60;;;1.33;;
69931;SDS011;57243;52.064;5.116;2022-10-16T12:28:02;4.55;;;1.42;;
69931;SDS011;57243;52.064;5.116;2022-10-16T12:30:30;8.32;;;2.33;;
69931;SDS011;57243;52.064;5.116;2022-10-16T12:32:59;6.07;;;1.25;;
69931;SDS011;57243;52.064;5.116;2022-10-16T12:35:30;5.40;;;1.30;;
69931;SDS011;57243;52.064;5.116;2022-10-16T12:38:04;5.37;;;1.40;;
69931;SDS011;57243;52.064;5.116;2022-10-16T12:40:39;6.18;;;1.40;;
69931;SDS011;57243;52.064;5.116;2022-10-16T12:48:45;9.10;;;1.75;;
69931;SDS011;57243;52.064;5.116;2022-10-16T12:51:21;4.03;;;1.10;;
69931;SDS011;57243;52.064;5.116;2022-10-16T13:22:32;5.65;;;1.27;;
69931;SDS011;57243;52.064;5.116;2022-10-16T13:28:00;5.07;;;1.60;;
69931;SDS011;57243;52.064;5.116;2022-10-16T13:30:39;6.32;;;1.48;;
69931;SDS011;57243;52.064;5.116;2022-10-16T13:33:07;6.53;;;1.30;;
69931;SDS011;57243;52.064;5.116;2022-10-16T13:35:47;5.97;;;1.30;;
69931;SDS011;57243;52.064;5.116;2022-10-16T13:38:18;4.80;;;1.10;;
69931;SDS011;57243;52.064;5.116;2022-10-16T13:40:59;4.60;;;1.10;;
69931;SDS011;57243;52.064;5.116;2022-10-16T13:43:34;2.72;;;1.05;;
69931;SDS011;57243;52.064;5.116;2022-10-16T13:46:10;6.27;;;1.50;;
69931;SDS011;57243;52.064;5.116;2022-10-16T13:48:38;4.38;;;1.42;;
69931;SDS011;57243;52.064;5.116;2022-10-16T13:53:40;3.83;;;1.20;;
69931;SDS011;57243;52.064;5.116;2022-10-16T13:56:09;4.57;;;1.33;;
69931;SDS011;57243;52.064;5.116;2022-10-16T13:58:45;3.75;;;1.15;;
69931;SDS011;57243;52.064;5.116;2022-10-16T14:01:25;4.95;;;1.40;;
69931;SDS011;57243;52.064;5.116;2022-10-16T14:04:06;6.47;;;1.38;;
69931;SDS011;57243;52.064;5.116;2022-10-16T14:06:34;3.63;;;1.40;;
69931;SDS011;57243;52.064;5.116;2022-10-16T14:09:05;4.32;;;1.25;;
69931;SDS011;57243;52.064;5.116;2022-10-16T14:11:36;3.35;;;1.20;;
69931;SDS011;57243;52.064;5.116;2022-10-16T14:14:23;4.55;;;1.38;;
69931;SDS011;57243;52.064;5.116;2022-10-16T14:16:51;4.47;;;1.30;;
69931;SDS011;57243;52.064;5.116;2022-10-16T14:21:46;4.13;;;1.05;;
69931;SDS011;57243;52.064;5.116;2022-10-16T14:24:13;5.75;;;1.20;;
69931;SDS011;57243;52.064;5.116;2022-10-16T14:27:00;7.47;;;1.30;;
69931;SDS011;57243;52.064;5.116;2022-10-16T14:29:27;8.05;;;1.20;;
69931;SDS011;57243;52.064;5.116;2022-10-16T14:37:05;3.95;;;1.10;;
69931;SDS011;57243;52.064;5.116;2022-10-16T14:39:40;4.53;;;0.90;;
69931;SDS011;57243;52.064;5.116;2022-10-16T14:42:16;6.72;;;1.13;;
69931;SDS011;57243;52.064;5.116;2022-10-16T14:44:44;6.05;;;0.95;;
69931;SDS011;57243;52.064;5.116;2022-10-16T14:47:15;12.02;;;1.45;;
69931;SDS011;57243;52.064;5.116;2022-10-16T14:49:47;3.25;;;1.40;;
69931;SDS011;57243;52.064;5.116;2022-10-16T14:52:13;5.72;;;1.30;;
69931;SDS011;57243;52.064;5.116;2022-10-16T14:54:39;7.45;;;1.10;;
69931;SDS011;57243;52.064;5.116;2022-10-16T14:57:05;8.18;;;1.20;;
69931;SDS011;57243;52.064;5.116;2022-10-16T14:59:41;5.35;;;1.33;;
69931;SDS011;57243;52.064;5.116;2022-10-16T15:04:48;5.85;;;1.23;;
69931;SDS011;57243;52.064;5.116;2022-10-16T15:07:14;7.93;;;1.67;;
69931;SDS011;57243;52.064;5.116;2022-10-16T15:09:40;8.23;;;1.40;;
69931;SDS011;57243;52.064;5.116;2022-10-16T15:12:06;5.07;;;1.30;;
69931;SDS011;57243;52.064;5.116;2022-10-16T15:14:32;7.93;;;1.30;;
69931;SDS011;57243;52.064;5.116;2022-10-16T15:16:58;7.32;;;1.42;;
69931;SDS011;57243;52.064;5.116;2022-10-16T15:19:23;4.10;;;1.33;;
69931;SDS011;57243;52.064;5.116;2022-10-16T15:21:49;7.47;;;1.40;;
69931;SDS011;57243;52.064;5.116;2022-10-16T15:24:15;8.15;;;1.33;;
69931;SDS011;57243;52.064;5.116;2022-10-16T15:26:41;5.90;;;1.33;;
69931;SDS011;57243;52.064;5.116;2022-10-16T15:29:07;6.50;;;1.35;;
69931;SDS011;57243;52.064;5.116;2022-10-16T15:31:33;9.03;;;1.20;;
69931;SDS011;57243;52.064;5.116;2022-10-16T15:33:59;5.78;;;1.02;;
69931;SDS011;57243;52.064;5.116;2022-10-16T15:36:30;7.70;;;1.30;;
69931;SDS011;57243;52.064;5.116;2022-10-16T15:39:02;9.65;;;1.17;;
69931;SDS011;57243;52.064;5.116;2022-10-16T15:41:28;9.00;;;2.37;;
69931;SDS011;57243;52.064;5.116;2022-10-16T15:43:54;7.97;;;1.42;;
69931;SDS011;57243;52.064;5.116;2022-10-16T15:46:20;8.33;;;1.60;;
69931;SDS011;57243;52.064;5.116;2022-10-16T15:48:49;16.60;;;2.20;;
69931;SDS011;57243;52.064;5.116;2022-10-16T15:51:15;7.15;;;1.20;;
69931;SDS011;57243;52.064;5.116;2022-10-16T15:53:42;7.45;;;1.55;;
69931;SDS011;57243;52.064;5.116;2022-10-16T15:56:11;13.27;;;1.30;;
69931;SDS011;57243;52.064;5.116;2022-10-16T15:58:37;8.88;;;1.50;;
69931;SDS011;57243;52.064;5.116;2022-10-16T16:01:03;6.63;;;1.65;;
69931;SDS011;57243;52.064;5.116;2022-10-16T16:03:32;7.85;;;1.50;;
69931;SDS011;57243;52.064;5.116;2022-10-16T16:05:58;5.72;;;1.85;;
69931;SDS011;57243;52.064;5.116;2022-10-16T16:08:28;8.73;;;1.98;;
69931;SDS011;57243;52.064;5.116;2022-10-16T16:11:03;9.50;;;1.90;;
69931;SDS011;57243;52.064;5.116;2022-10-16T16:13:33;6.70;;;1.55;;
69931;SDS011;57243;52.064;5.116;2022-10-16T16:15:59;7.63;;;1.80;;
69931;SDS011;57243;52.064;5.116;2022-10-16T16:18:25;7.60;;;1.67;;
69931;SDS011;57243;52.064;5.116;2022-10-16T16:20:51;7.72;;;1.67;;
69931;SDS011;57243;52.064;5.116;2022-10-16T16:23:17;4.47;;;1.30;;
69931;SDS011;57243;52.064;5.116;2022-10-16T16:25:44;6.32;;;1.50;;
69931;SDS011;57243;52.064;5.116;2022-10-16T16:28:09;7.23;;;3.47;;
69931;SDS011;57243;52.064;5.116;2022-10-16T16:30:39;29.95;;;25.63;;
69931;SDS011;57243;52.064;5.116;2022-10-16T16:33:09;58.83;;;48.63;;
69931;SDS011;57243;52.064;5.116;2022-10-16T16:35:35;63.65;;;51.17;;
69931;SDS011;57243;52.064;5.116;2022-10-16T16:38:00;55.33;;;44.30;;
69931;SDS011;57243;52.064;5.116;2022-10-16T16:40:26;58.73;;;44.97;;
69931;SDS011;57243;52.064;5.116;2022-10-16T16:42:52;49.45;;;41.03;;
69931;SDS011;57243;52.064;5.116;2022-10-16T16:45:18;48.65;;;39.60;;
69931;SDS011;57243;52.064;5.116;2022-10-16T16:47:43;48.67;;;37.73;;
69931;SDS011;57243;52.064;5.116;2022-10-16T16:50:09;43.50;;;35.97;;
69931;SDS011;57243;52.064;5.116;2022-10-16T16:52:35;44.92;;;34.10;;
69931;SDS011;57243;52.064;5.116;2022-10-16T16:55:00;39.63;;;30.20;;
69931;SDS011;57243;52.064;5.116;2022-10-16T16:57:26;38.97;;;30.50;;